Alberton, Montana
Current Conditions -  °F | °C
As of 7:53 PM on Wednesday 26 Nov 2014 (Local Time) from KMSO Reporting Station
Haze Haze  
Wind Chill: 31°   Ceiling: Unl
Heat Index: 31°   Visibility: 6mi
Dew Point: 31°   Wind: 0mph
Humidity: 100%   Direction: NA
Pressure: 30.12"   Gusts: NA
Location:  47°N, 114.47°W
Report Text: KMSO 270253Z 00000KT 6SM BR CLR M01/M01 A3012 RMK AO2 SLP230 T10061006 56014
Loading
Personal Weather Stations






























Interactive Weather Map New forecast layout! Learn more

10-Day Weather Forecast

Advertisements
Track Severe Weather on mobile